Airport ID:KSMD
Update Time (UTC):17/06/2019 21:26
Wind Speed (Knots):4
Wind Direction (Magnetic):40
Temperature (°C):21.7
Dew Point (°C):19.2
Humidity (%):85.2
Altimeter (inHg):29.97
Density Altitude (Feet):02000
Visibility (Miles):9
Clouds (Hundreds of feet):BKN015
Present Weather:
METAR:METAR KSMD 172125Z AUTO 04003KT 8SM BKN015 22/19 A2998 RMK A01

The data displayed is for advisory purposes only and is not to be used for flight planning or operations.

This page is not automatically refreshed. Reload the page to see current data.